METAR & TAF

RJAH 241300Z 10002KT 9999 FEW030 BKN/// 18/17 Q1015
RJAH 241200Z VRB01KT 9999 FEW030 BKN/// 19/17 Q1015
RJAH 241100Z 16001KT 9999 FEW030 BKN/// 20/15 Q1016
RJAH 241017Z 00000KT 9999 FEW030 SCT040 BKN/// 20/15 Q1015 RMK 1CU030 3SC040 A3000
RJAH 241000Z 16004KT 9999 FEW030 BKN040 BKN/// 21/15 Q1015
RJAH 240900Z 16003KT 130V190 9999 FEW030 BKN040 BKN/// 23/14 Q1015

TAF RJAH 241106Z 2412/2518 08004KT 9999 FEW020 BKN040
  TEMPO 2418/2500 4000 BR
  BECMG 2500/2503 12010KT
  TEMPO 2509/2512 3000 SHRA BR FEW005 BKN008
  BECMG 2515/2518 36004KT